Time;durP1;ratioP1;P1;durP2;ratioP2;P2;SDS_P1;SDS_P2;PMS_P1;PMS_P2;Temp;Humidity;BMP_temperature;BMP_pressure;BME280_temperature;BME280_humidity;BME280_pressure;Samples;Min_cycle;Max_cycle;Signal;HPM_P1;HPM_P2
2023/07/17 00:04:43;;;;;;;2.67;1.20;;;20.60;86.90;;;;;;10375723;28;20021;-65
2023/07/17 00:09:43;;;;;;;2.85;1.48;;;20.60;86.80;;;;;;10380851;28;20109;-64
2023/07/17 00:14:44;;;;;;;2.28;1.40;;;20.50;86.80;;;;;;10376769;28;20162;-64
2023/07/17 00:19:54;;;;;;;2.90;1.30;;;20.50;86.80;;;;;;10365102;28;20053;-65
2023/07/17 00:24:55;;;;;;;3.15;1.38;;;20.50;86.90;;;;;;10377211;28;20041;-65
2023/07/17 00:29:56;;;;;;;2.95;1.45;;;20.50;87.00;;;;;;10381570;28;20166;-65
2023/07/17 00:34:57;;;;;;;3.50;1.30;;;20.50;87.00;;;;;;10387801;28;20030;-64
2023/07/17 00:39:57;;;;;;;3.95;1.30;;;20.50;87.10;;;;;;10386831;28;20033;-66
2023/07/17 00:44:58;;;;;;;2.97;1.30;;;20.40;87.10;;;;;;10373797;28;20017;-65
2023/07/17 00:50:00;;;;;;;3.70;1.35;;;20.40;87.10;;;;;;10385451;28;20041;-64
2023/07/17 00:55:01;;;;;;;2.67;1.23;;;20.40;87.20;;;;;;10374830;28;20113;-64
2023/07/17 01:00:04;;;;;;;2.83;1.20;;;20.40;87.20;;;;;;10377537;28;20266;-64
2023/07/17 01:05:05;;;;;;;2.03;1.27;;;20.40;87.20;;;;;;10377226;28;20014;-64
2023/07/17 01:10:07;;;;;;;2.78;1.60;;;20.30;87.10;;;;;;10379546;28;20028;-65
2023/07/17 01:15:08;;;;;;;1.83;1.15;;;20.30;87.10;;;;;;10377370;28;20500;-65
2023/07/17 01:20:16;;;;;;;2.38;1.17;;;20.30;87.10;;;;;;10372261;28;20079;-65
2023/07/17 01:25:16;;;;;;;4.18;1.42;;;20.30;87.00;;;;;;10361379;28;20017;-65
2023/07/17 01:30:17;;;;;;;3.70;1.05;;;20.30;87.00;;;;;;10371288;28;20021;-64
2023/07/17 01:35:18;;;;;;;2.95;1.05;;;20.30;87.00;;;;;;10373448;28;20041;-64
2023/07/17 01:40:19;;;;;;;2.55;1.10;;;20.20;86.90;;;;;;10371301;28;20107;-66
2023/07/17 01:45:19;;;;;;;2.67;1.20;;;20.20;86.90;;;;;;10365403;28;20021;-65
2023/07/17 01:50:20;;;;;;;2.67;1.08;;;20.30;87.00;;;;;;10362601;28;20025;-64
2023/07/17 01:55:20;;;;;;;2.75;1.30;;;20.20;86.90;;;;;;10368239;28;20025;-65
2023/07/17 02:00:22;;;;;;;4.95;1.35;;;20.20;86.90;;;;;;10370874;28;20291;-65
2023/07/17 02:05:23;;;;;;;2.25;1.20;;;20.10;86.90;;;;;;10367028;28;20026;-65
2023/07/17 02:10:23;;;;;;;3.92;1.23;;;20.10;86.90;;;;;;10366380;28;20029;-65
2023/07/17 02:15:24;;;;;;;1.50;1.05;;;20.10;86.90;;;;;;10367939;28;20276;-65
2023/07/17 02:20:25;;;;;;;2.22;1.13;;;20.10;86.90;;;;;;10371045;28;20057;-64
2023/07/17 02:25:25;;;;;;;1.42;0.95;;;20.00;86.90;;;;;;10364746;28;20172;-65
2023/07/17 02:30:26;;;;;;;3.85;1.30;;;20.00;86.90;;;;;;10379144;28;20021;-65
2023/07/17 02:35:26;;;;;;;3.80;1.10;;;20.00;86.90;;;;;;10384507;28;20541;-65
2023/07/17 02:40:27;;;;;;;4.97;1.13;;;20.00;87.00;;;;;;10376062;28;20018;-65
2023/07/17 02:45:28;;;;;;;2.28;1.13;;;20.00;87.00;;;;;;10371321;28;20018;-65
2023/07/17 02:50:28;;;;;;;2.95;1.20;;;19.90;87.00;;;;;;10378727;28;20057;-64
2023/07/17 02:55:29;;;;;;;2.33;1.05;;;19.90;87.00;;;;;;10365284;28;20025;-64
2023/07/17 03:00:29;;;;;;;3.13;1.30;;;19.90;87.00;;;;;;10379802;28;20025;-64
2023/07/17 03:05:30;;;;;;;2.30;1.10;;;19.90;87.00;;;;;;10380307;28;20046;-64
2023/07/17 03:10:31;;;;;;;2.67;1.00;;;19.90;87.00;;;;;;10375891;28;20110;-65
2023/07/17 03:15:31;;;;;;;3.00;1.27;;;19.80;87.00;;;;;;10377520;28;20518;-64
2023/07/17 03:20:34;;;;;;;1.70;1.05;;;19.80;87.00;;;;;;10376090;28;20601;-65
2023/07/17 03:25:35;;;;;;;4.25;1.20;;;19.80;87.00;;;;;;10374614;28;20561;-64
2023/07/17 03:30:35;;;;;;;3.90;1.20;;;19.80;87.00;;;;;;10380552;28;20032;-64
2023/07/17 03:35:36;;;;;;;4.10;1.63;;;19.70;87.00;;;;;;10383223;28;20017;-65
2023/07/17 03:40:37;;;;;;;3.42;1.15;;;19.80;87.10;;;;;;10373748;28;20034;-64
2023/07/17 03:45:37;;;;;;;4.38;1.52;;;19.70;87.00;;;;;;10374965;28;20401;-65
2023/07/17 03:50:38;;;;;;;3.70;1.20;;;19.60;87.00;;;;;;10375440;28;20022;-64
2023/07/17 03:55:39;;;;;;;3.17;1.20;;;19.70;87.00;;;;;;10384728;28;20022;-65
2023/07/17 04:00:39;;;;;;;2.83;1.10;;;19.70;87.00;;;;;;10374974;28;20034;-65
2023/07/17 04:05:40;;;;;;;2.60;1.42;;;19.70;87.00;;;;;;10375543;28;20021;-65
2023/07/17 04:10:41;;;;;;;5.75;1.42;;;19.60;87.00;;;;;;10377037;28;20490;-64
2023/07/17 04:15:41;;;;;;;2.97;1.48;;;19.60;87.00;;;;;;10379374;28;20038;-65
2023/07/17 04:20:42;;;;;;;4.30;1.27;;;19.60;87.00;;;;;;10379558;28;20113;-64
2023/07/17 04:25:44;;;;;;;3.10;1.02;;;19.60;87.00;;;;;;10379622;28;20030;-64
2023/07/17 04:30:44;;;;;;;2.95;1.00;;;19.60;86.90;;;;;;10381644;28;21006;-64
2023/07/17 04:35:45;;;;;;;4.15;1.50;;;19.60;86.90;;;;;;10383368;28;20470;-64
2023/07/17 04:40:46;;;;;;;3.63;1.20;;;19.60;86.90;;;;;;10379499;28;20039;-64
2023/07/17 04:45:46;;;;;;;6.00;1.50;;;19.50;86.90;;;;;;10369285;28;20018;-64
2023/07/17 04:50:47;;;;;;;6.28;1.20;;;19.50;86.80;;;;;;10384260;28;20017;-64
2023/07/17 04:55:48;;;;;;;1.83;0.93;;;19.60;86.90;;;;;;10378794;28;20041;-64
2023/07/17 05:00:49;;;;;;;3.83;1.40;;;19.50;86.80;;;;;;10385933;28;20490;-64
2023/07/17 05:05:53;;;;;;;3.20;1.50;;;19.50;86.80;;;;;;10373849;28;20025;-64
2023/07/17 05:10:59;;;;;;;5.20;1.67;;;19.50;86.70;;;;;;10382444;28;20037;-64
2023/07/17 05:16:00;;;;;;;5.10;2.08;;;19.50;86.70;;;;;;10375689;28;20033;-64
2023/07/17 05:21:00;;;;;;;3.35;1.10;;;19.60;86.80;;;;;;10380503;28;20022;-64
2023/07/17 05:26:03;;;;;;;3.33;1.50;;;19.50;86.70;;;;;;10385021;28;20018;-65
2023/07/17 05:31:04;;;;;;;3.17;1.17;;;19.50;86.70;;;;;;10373070;28;20132;-66
2023/07/17 05:36:05;;;;;;;3.03;1.40;;;19.50;86.70;;;;;;10380696;28;20235;-64
2023/07/17 05:41:05;;;;;;;2.42;1.20;;;19.50;86.70;;;;;;10381401;28;20236;-64
2023/07/17 05:46:06;;;;;;;3.13;1.27;;;19.50;86.70;;;;;;10365268;28;20022;-64
2023/07/17 05:51:08;;;;;;;5.57;1.30;;;19.50;86.70;;;;;;10375982;28;20045;-64
2023/07/17 05:56:10;;;;;;;3.20;1.55;;;19.50;86.70;;;;;;10378632;28;20417;-65
2023/07/17 06:01:11;;;;;;;3.58;1.83;;;19.50;86.70;;;;;;10372683;28;20441;-64
2023/07/17 06:06:11;;;;;;;4.25;1.80;;;19.50;86.70;;;;;;10375266;28;20022;-64
2023/07/17 06:11:12;;;;;;;3.45;1.50;;;19.50;86.80;;;;;;10375347;28;20033;-63
2023/07/17 06:16:13;;;;;;;5.40;1.80;;;19.50;87.30;;;;;;10375063;28;20041;-64
2023/07/17 06:21:16;;;;;;;3.83;1.67;;;19.50;86.80;;;;;;10371566;28;20030;-65
2023/07/17 06:26:17;;;;;;;6.13;2.13;;;19.50;86.80;;;;;;10371302;28;20022;-64
2023/07/17 06:31:17;;;;;;;6.45;1.90;;;19.50;87.00;;;;;;10373159;28;20026;-64
2023/07/17 06:36:18;;;;;;;6.40;1.70;;;19.50;87.00;;;;;;10374824;28;20108;-64
2023/07/17 06:41:19;;;;;;;3.10;1.60;;;19.50;87.00;;;;;;10371419;28;20037;-65
2023/07/17 06:46:19;;;;;;;9.88;2.20;;;19.60;87.10;;;;;;10377330;28;20358;-67
2023/07/17 06:51:20;;;;;;;4.53;1.90;;;19.60;87.10;;;;;;10375610;28;20017;-65
2023/07/17 06:56:21;;;;;;;4.70;2.00;;;19.60;87.10;;;;;;10386208;28;20021;-65
2023/07/17 07:01:21;;;;;;;4.95;1.70;;;19.60;87.20;;;;;;10377224;28;20035;-66
2023/07/17 07:06:27;;;;;;;5.30;2.00;;;19.60;87.10;;;;;;10376746;28;20022;-64
2023/07/17 07:11:28;;;;;;;6.55;2.20;;;19.60;87.20;;;;;;10376559;28;20401;-64
2023/07/17 07:16:29;;;;;;;7.78;2.05;;;19.60;87.20;;;;;;10373807;28;20120;-65
2023/07/17 07:21:29;;;;;;;4.32;1.80;;;19.60;87.20;;;;;;10380195;28;20014;-65
2023/07/17 07:26:31;;;;;;;4.85;2.00;;;19.60;87.20;;;;;;10383181;28;20497;-66
2023/07/17 07:31:32;;;;;;;5.60;2.10;;;19.60;87.20;;;;;;10371158;28;20029;-66
2023/07/17 07:36:32;;;;;;;5.22;2.13;;;19.60;87.20;;;;;;10383905;28;20314;-65
2023/07/17 07:41:35;;;;;;;3.70;2.25;;;19.70;87.20;;;;;;10377769;28;20049;-66
2023/07/17 07:46:35;;;;;;;7.15;2.40;;;19.70;87.20;;;;;;10381195;28;20024;-65
2023/07/17 07:51:36;;;;;;;6.93;2.58;;;19.70;87.20;;;;;;10374452;28;20513;-65
2023/07/17 07:56:37;;;;;;;7.45;2.50;;;19.80;87.10;;;;;;10383750;28;20029;-63
2023/07/17 08:01:37;;;;;;;4.63;2.40;;;19.90;87.00;;;;;;10383524;28;20033;-68
2023/07/17 08:06:38;;;;;;;5.70;2.53;;;19.90;87.00;;;;;;10370171;28;20446;-68
2023/07/17 08:11:39;;;;;;;7.75;2.72;;;19.90;86.90;;;;;;10380937;28;20038;-67
2023/07/17 08:16:40;;;;;;;7.32;2.58;;;19.90;86.80;;;;;;10383921;28;20096;-66
2023/07/17 08:21:41;;;;;;;5.07;2.55;;;20.00;86.80;;;;;;10371419;28;20107;-67
2023/07/17 08:26:43;;;;;;;6.18;2.30;;;20.00;86.80;;;;;;10412681;28;20030;-66
2023/07/17 08:31:45;;;;;;;6.90;3.03;;;20.00;86.70;;;;;;10381692;28;20116;-66
2023/07/17 08:36:46;;;;;;;6.57;2.65;;;20.10;86.70;;;;;;10387133;28;20025;-67
2023/07/17 08:41:47;;;;;;;7.25;2.83;;;20.10;86.70;;;;;;10377827;28;20022;-68
2023/07/17 08:46:51;;;;;;;6.97;2.70;;;20.20;86.70;;;;;;10373241;28;20041;-66
2023/07/17 08:51:54;;;;;;;6.68;2.40;;;20.10;86.60;;;;;;10384547;28;20029;-65
2023/07/17 08:57:03;;;;;;;5.13;2.40;;;20.10;86.60;;;;;;10384898;28;20470;-65
2023/07/17 09:02:04;;;;;;;5.50;2.65;;;20.10;86.60;;;;;;10381759;28;20026;-66
2023/07/17 09:07:05;;;;;;;4.43;2.13;;;20.20;86.60;;;;;;10379627;28;20022;-65
2023/07/17 09:12:10;;;;;;;6.65;2.40;;;20.20;86.50;;;;;;10380843;28;20084;-65
2023/07/17 09:17:10;;;;;;;7.68;2.55;;;20.20;86.40;;;;;;10381125;28;20030;-67
2023/07/17 09:22:15;;;;;;;4.22;2.25;;;20.20;86.50;;;;;;10378633;28;20025;-65
2023/07/17 09:27:15;;;;;;;6.68;2.58;;;20.20;86.50;;;;;;10381063;28;20056;-65
2023/07/17 09:32:18;;;;;;;5.95;2.90;;;20.20;86.30;;;;;;10383581;28;20447;-66
2023/07/17 09:37:21;;;;;;;4.28;2.13;;;20.30;86.00;;;;;;10383630;28;20049;-66
2023/07/17 09:42:25;;;;;;;8.15;2.28;;;20.40;85.80;;;;;;10396475;28;20537;-66
2023/07/17 09:47:27;;;;;;;4.95;2.08;;;20.50;85.70;;;;;;10363124;28;20492;-65
2023/07/17 09:52:29;;;;;;;7.85;2.00;;;20.50;85.60;;;;;;10375857;28;20409;-67
2023/07/17 09:57:37;;;;;;;5.57;2.25;;;20.40;85.20;;;;;;10370576;28;20038;-68
2023/07/17 10:02:57;;;;;;;4.63;2.15;;;20.40;85.20;;;;;;10374561;28;20477;-67
2023/07/17 10:07:59;;;;;;;6.32;2.00;;;20.50;84.60;;;;;;10383233;28;20022;-68
2023/07/17 10:13:01;;;;;;;6.47;2.10;;;20.50;84.10;;;;;;10373554;28;20158;-67
2023/07/17 10:18:02;;;;;;;5.63;2.05;;;20.50;83.80;;;;;;10374788;28;20083;-67
2023/07/17 10:23:02;;;;;;;5.97;1.83;;;20.50;83.30;;;;;;10372580;28;20508;-68
2023/07/17 10:28:04;;;;;;;6.70;1.90;;;20.60;83.70;;;;;;10372895;28;20418;-68
2023/07/17 10:33:05;;;;;;;5.68;1.92;;;20.70;83.30;;;;;;10377202;28;20022;-73
2023/07/17 10:38:10;;;;;;;6.00;1.73;;;20.90;83.00;;;;;;10377397;28;20018;-70
2023/07/17 10:43:11;;;;;;;5.45;2.15;;;20.90;82.60;;;;;;10371655;28;20113;-68
2023/07/17 10:48:12;;;;;;;4.45;1.70;;;21.00;82.30;;;;;;10375628;28;20014;-69
2023/07/17 10:53:13;;;;;;;6.80;1.95;;;20.90;82.00;;;;;;10378463;28;20051;-68
2023/07/17 10:58:14;;;;;;;4.72;1.92;;;21.10;82.00;;;;;;10381316;28;20028;-69
2023/07/17 11:03:16;;;;;;;3.95;1.60;;;21.10;81.80;;;;;;10387971;28;20034;-68
2023/07/17 11:08:17;;;;;;;4.90;1.48;;;21.40;81.40;;;;;;10382360;28;20028;-68
2023/07/17 11:13:18;;;;;;;3.75;1.17;;;21.30;80.70;;;;;;10380951;28;20393;-68
2023/07/17 11:18:18;;;;;;;3.08;1.50;;;21.50;80.40;;;;;;10382803;28;20142;-68
2023/07/17 11:23:19;;;;;;;5.60;1.50;;;21.60;80.20;;;;;;10380000;28;20079;-69
2023/07/17 11:28:19;;;;;;;5.68;1.27;;;21.50;80.20;;;;;;10370170;28;20037;-68
2023/07/17 11:33:20;;;;;;;5.43;1.42;;;21.50;80.00;;;;;;10381264;28;20084;-67
2023/07/17 11:38:21;;;;;;;4.63;1.45;;;21.60;79.80;;;;;;10374337;28;20096;-68
2023/07/17 11:43:27;;;;;;;6.55;1.30;;;21.70;79.30;;;;;;10380147;28;20026;-66
2023/07/17 11:48:30;;;;;;;5.15;1.65;;;21.60;79.30;;;;;;10380254;28;20024;-65
2023/07/17 11:53:32;;;;;;;4.97;1.92;;;21.70;79.80;;;;;;10382019;28;20026;-65
2023/07/17 11:58:34;;;;;;;3.63;1.50;;;21.60;80.00;;;;;;10375674;28;20041;-65
2023/07/17 12:03:35;;;;;;;6.72;1.60;;;21.50;80.30;;;;;;10384979;28;20049;-65
2023/07/17 12:08:37;;;;;;;4.20;1.60;;;21.50;80.60;;;;;;10379599;28;20052;-66
2023/07/17 12:13:38;;;;;;;5.50;1.65;;;21.40;80.80;;;;;;10373282;28;20041;-66
2023/07/17 12:18:38;;;;;;;4.60;1.52;;;21.30;81.20;;;;;;10378736;28;20026;-66
2023/07/17 12:23:39;;;;;;;4.85;1.33;;;21.40;81.60;;;;;;10373936;28;20029;-66
2023/07/17 12:28:40;;;;;;;3.20;1.23;;;21.20;81.80;;;;;;10375611;28;20029;-66
2023/07/17 12:33:41;;;;;;;2.55;1.30;;;21.20;82.00;;;;;;10384087;28;20026;-66
2023/07/17 12:38:41;;;;;;;2.97;1.10;;;21.20;82.20;;;;;;10376464;28;20060;-66
2023/07/17 12:43:44;;;;;;;4.13;1.42;;;21.10;82.50;;;;;;10375364;28;20123;-67
2023/07/17 12:48:45;;;;;;;3.47;1.48;;;21.00;82.80;;;;;;10371827;28;20049;-66
2023/07/17 12:53:46;;;;;;;3.38;1.08;;;20.80;83.10;;;;;;10379772;28;20513;-67
2023/07/17 12:58:46;;;;;;;2.88;1.30;;;20.80;83.50;;;;;;10380391;28;20132;-67
2023/07/17 13:03:48;;;;;;;6.95;1.60;;;20.80;83.80;;;;;;10377964;28;20040;-65
2023/07/17 13:08:49;;;;;;;2.78;1.50;;;20.80;84.10;;;;;;10378387;28;20398;-66
2023/07/17 13:13:50;;;;;;;3.35;1.63;;;20.80;84.40;;;;;;10369804;28;20025;-66
2023/07/17 13:18:50;;;;;;;2.95;1.33;;;20.80;84.50;;;;;;10368388;28;20029;-66
2023/07/17 13:23:51;;;;;;;6.05;1.42;;;20.80;84.60;;;;;;10380525;28;20026;-66
2023/07/17 13:28:57;;;;;;;5.25;1.10;;;20.90;84.70;;;;;;10376406;28;20017;-66
2023/07/17 13:33:57;;;;;;;1.92;1.20;;;21.00;84.50;;;;;;10377002;28;20551;-66
2023/07/17 13:38:58;;;;;;;4.18;1.40;;;21.10;84.50;;;;;;10376792;28;20072;-67
2023/07/17 13:43:58;;;;;;;5.22;1.42;;;21.10;84.40;;;;;;10372513;28;20021;-67
2023/07/17 13:49:00;;;;;;;3.40;1.40;;;21.10;84.60;;;;;;10375176;28;20020;-66
2023/07/17 13:54:01;;;;;;;3.47;1.58;;;21.20;84.70;;;;;;10375330;28;20553;-66
2023/07/17 13:59:03;;;;;;;2.83;1.38;;;21.20;84.70;;;;;;10368279;28;20394;-66
2023/07/17 14:04:05;;;;;;;2.53;1.42;;;21.10;84.80;;;;;;10371297;28;20378;-66
2023/07/17 14:09:06;;;;;;;2.42;1.33;;;21.10;85.00;;;;;;10368551;28;20029;-66
2023/07/17 14:14:06;;;;;;;12.55;1.90;;;21.10;85.20;;;;;;10370923;28;20025;-65
2023/07/17 14:19:07;;;;;;;4.65;1.60;;;21.00;85.60;;;;;;10371376;28;20666;-66
2023/07/17 14:24:08;;;;;;;3.40;1.60;;;21.00;85.80;;;;;;10385388;28;20042;-66
2023/07/17 14:29:08;;;;;;;6.97;2.13;;;21.00;85.90;;;;;;10385078;28;20032;-66
2023/07/17 14:34:09;;;;;;;3.58;1.30;;;21.00;85.90;;;;;;10383847;28;20975;-68
2023/07/17 14:39:09;;;;;;;4.22;1.52;;;21.00;85.80;;;;;;10380563;28;20048;-66
2023/07/17 14:44:10;;;;;;;4.05;1.45;;;21.00;85.80;;;;;;10387221;28;20039;-66
2023/07/17 14:49:11;;;;;;;6.10;1.65;;;21.10;85.90;;;;;;10380065;28;20013;-67
2023/07/17 14:54:11;;;;;;;3.47;1.45;;;21.10;85.90;;;;;;10383027;28;20041;-67
2023/07/17 14:59:12;;;;;;;5.82;1.60;;;21.10;85.90;;;;;;10378782;28;20203;-68
2023/07/17 15:04:13;;;;;;;3.95;1.85;;;21.10;85.90;;;;;;10381069;28;20097;-66
2023/07/17 15:09:13;;;;;;;2.88;1.80;;;21.10;85.90;;;;;;10392502;28;20428;-66
2023/07/17 15:14:14;;;;;;;4.70;1.60;;;21.30;85.80;;;;;;10392352;28;20107;-67
2023/07/17 15:19:14;;;;;;;4.80;1.90;;;21.40;85.60;;;;;;10393360;28;20479;-68
2023/07/17 15:24:15;;;;;;;4.97;2.00;;;21.50;85.50;;;;;;10389347;28;20188;-67
2023/07/17 15:29:15;;;;;;;3.88;1.83;;;21.50;85.50;;;;;;10390688;28;20054;-67
2023/07/17 15:34:16;;;;;;;3.17;1.77;;;21.50;85.50;;;;;;10391428;28;20044;-67
2023/07/17 15:39:17;;;;;;;3.87;1.70;;;21.50;85.60;;;;;;10384541;28;20026;-67
2023/07/17 15:44:17;;;;;;;3.03;1.65;;;21.40;85.50;;;;;;10380143;28;20320;-66
2023/07/17 15:49:18;;;;;;;2.53;1.38;;;21.40;85.60;;;;;;10378919;28;20018;-67
2023/07/17 15:54:19;;;;;;;7.68;1.92;;;21.50;85.50;;;;;;10380272;28;20029;-68
2023/07/17 15:59:19;;;;;;;6.85;1.90;;;21.70;85.50;;;;;;10383074;28;20094;-67
2023/07/17 16:04:20;;;;;;;3.83;1.65;;;21.80;85.20;;;;;;10387544;28;20087;-68
2023/07/17 16:09:20;;;;;;;3.67;1.60;;;21.80;84.40;;;;;;10382622;28;20055;-72
2023/07/17 16:14:21;;;;;;;5.00;1.90;;;21.50;84.20;;;;;;10382028;28;20041;-72
2023/07/17 16:19:22;;;;;;;3.20;2.22;;;21.30;84.60;;;;;;10378950;28;20556;-71
2023/07/17 16:24:22;;;;;;;5.00;1.50;;;21.10;84.30;;;;;;10387041;28;20026;-70
2023/07/17 16:29:23;;;;;;;4.78;1.80;;;21.00;84.10;;;;;;10374009;28;20023;-71
2023/07/17 16:34:24;;;;;;;8.25;2.05;;;20.80;84.20;;;;;;10377417;28;20053;-70
2023/07/17 16:39:25;;;;;;;5.53;1.52;;;20.80;84.10;;;;;;10372851;28;20148;-70
2023/07/17 16:44:26;;;;;;;3.60;1.60;;;20.80;84.10;;;;;;10371073;28;20022;-70
2023/07/17 16:49:30;;;;;;;5.07;2.08;;;20.60;83.70;;;;;;10360247;28;20634;-71
2023/07/17 16:54:31;;;;;;;7.55;1.58;;;20.50;83.50;;;;;;10379718;28;20013;-72
2023/07/17 16:59:31;;;;;;;4.72;1.55;;;20.50;83.50;;;;;;10368370;28;20026;-70
2023/07/17 17:04:32;;;;;;;5.30;1.92;;;20.40;83.50;;;;;;10373519;28;20461;-69
2023/07/17 17:09:32;;;;;;;4.85;1.50;;;20.40;83.70;;;;;;10380762;28;20070;-70
2023/07/17 17:14:33;;;;;;;5.03;1.77;;;20.30;83.90;;;;;;10378030;28;20502;-70
2023/07/17 17:19:34;;;;;;;4.82;2.17;;;20.30;84.00;;;;;;10380634;28;20045;-69
2023/07/17 17:24:34;;;;;;;4.32;1.90;;;20.20;84.10;;;;;;10383377;28;20029;-68
2023/07/17 17:29:35;;;;;;;3.65;1.73;;;20.20;84.00;;;;;;10373210;28;21340;-68
2023/07/17 17:34:36;;;;;;;4.30;1.85;;;20.20;84.00;;;;;;10371679;28;20386;-69
2023/07/17 17:39:37;;;;;;;4.18;1.50;;;20.20;84.10;;;;;;10363440;28;20471;-69
2023/07/17 17:44:37;;;;;;;5.93;1.63;;;20.20;84.10;;;;;;10367766;28;20035;-69
2023/07/17 17:49:38;;;;;;;7.85;2.22;;;20.20;84.20;;;;;;10365513;28;20026;-69
2023/07/17 17:54:38;;;;;;;4.07;2.00;;;20.10;84.40;;;;;;10372392;28;20394;-69
2023/07/17 17:59:39;;;;;;;3.47;1.70;;;20.10;84.60;;;;;;10369004;28;20033;-69
2023/07/17 18:04:40;;;;;;;5.28;1.60;;;20.10;84.70;;;;;;10383004;28;20018;-69
2023/07/17 18:09:40;;;;;;;8.27;1.88;;;20.10;85.10;;;;;;10378279;28;20018;-69
2023/07/17 18:14:41;;;;;;;5.22;1.88;;;20.00;85.40;;;;;;10374767;28;20041;-69
2023/07/17 18:19:42;;;;;;;4.88;1.98;;;20.00;85.50;;;;;;10384379;28;20397;-69
2023/07/17 18:24:42;;;;;;;2.90;1.73;;;20.00;86.10;;;;;;10357728;28;20034;-69
2023/07/17 18:29:43;;;;;;;4.18;1.33;;;19.90;85.20;;;;;;10367570;28;20109;-69
2023/07/17 18:34:44;;;;;;;3.45;1.35;;;19.90;85.00;;;;;;10368539;28;20478;-70
2023/07/17 18:39:44;;;;;;;4.30;1.65;;;19.70;84.80;;;;;;10368849;28;20153;-70
2023/07/17 18:44:45;;;;;;;3.45;1.30;;;19.70;85.10;;;;;;10367849;28;20500;-70
2023/07/17 18:49:46;;;;;;;3.05;1.20;;;19.60;85.30;;;;;;10365486;28;20017;-69
2023/07/17 18:54:47;;;;;;;6.35;2.03;;;19.60;85.50;;;;;;10365423;28;20052;-69
2023/07/17 18:59:47;;;;;;;7.30;1.52;;;19.50;85.40;;;;;;10364128;28;20029;-69
2023/07/17 19:04:48;;;;;;;3.75;1.63;;;19.50;86.30;;;;;;10365669;28;20041;-69
2023/07/17 19:09:49;;;;;;;6.53;1.88;;;19.50;86.00;;;;;;10371730;28;20535;-69
2023/07/17 19:14:49;;;;;;;4.72;1.52;;;19.40;86.40;;;;;;10371379;28;20029;-69
2023/07/17 19:19:50;;;;;;;5.50;2.53;;;19.40;86.90;;;;;;10369345;28;20029;-69
2023/07/17 19:24:50;;;;;;;3.40;1.73;;;19.40;87.20;;;;;;10367805;28;20048;-69
2023/07/17 19:29:51;;;;;;;4.97;1.58;;;19.30;87.60;;;;;;10372968;28;20082;-69
2023/07/17 19:34:52;;;;;;;9.55;1.80;;;19.30;87.90;;;;;;10367976;28;20021;-70
2023/07/17 19:39:53;;;;;;;3.63;1.52;;;19.10;88.30;;;;;;10363036;28;20014;-69
2023/07/17 19:44:54;;;;;;;3.88;1.48;;;19.10;88.60;;;;;;10364068;28;20325;-69
2023/07/17 19:49:55;;;;;;;2.75;1.35;;;19.00;88.60;;;;;;10363322;28;20071;-69
2023/07/17 19:54:55;;;;;;;8.38;2.10;;;19.10;89.50;;;;;;10374152;28;20034;-69
2023/07/17 19:59:56;;;;;;;3.03;1.48;;;18.90;88.90;;;;;;10370085;28;20030;-69
2023/07/17 20:04:57;;;;;;;6.07;1.83;;;18.90;89.10;;;;;;10363151;28;20030;-69
2023/07/17 20:09:57;;;;;;;5.97;1.80;;;18.90;89.30;;;;;;10374923;28;20073;-69
2023/07/17 20:14:58;;;;;;;5.85;1.88;;;18.80;89.30;;;;;;10370204;28;20513;-69
2023/07/17 20:19:59;;;;;;;5.55;1.80;;;18.70;89.50;;;;;;10364672;28;20026;-71
2023/07/17 20:25:00;;;;;;;4.88;1.95;;;18.70;89.60;;;;;;10370540;28;20061;-64
2023/07/17 20:30:00;;;;;;;10.23;1.90;;;18.70;89.90;;;;;;10360746;28;20034;-65
2023/07/17 20:35:01;;;;;;;3.53;1.75;;;18.90;89.80;;;;;;10371464;28;20029;-65
2023/07/17 20:40:04;;;;;;;4.47;1.63;;;18.90;89.50;;;;;;10368105;28;20026;-64
2023/07/17 20:45:05;;;;;;;3.63;1.88;;;19.00;89.30;;;;;;10360920;28;20442;-65
2023/07/17 20:50:08;;;;;;;5.38;1.75;;;19.10;89.20;;;;;;10365360;28;20507;-64
2023/07/17 20:55:09;;;;;;;4.95;1.70;;;19.20;89.00;;;;;;10378388;28;20117;-65
2023/07/17 21:00:10;;;;;;;4.78;1.80;;;19.20;88.90;;;;;;10373305;28;20107;-64
2023/07/17 21:05:11;;;;;;;4.15;1.60;;;19.30;88.80;;;;;;10372910;28;20033;-64
2023/07/17 21:10:12;;;;;;;4.32;1.83;;;19.30;88.80;;;;;;10372372;28;20017;-64
2023/07/17 21:15:12;;;;;;;5.32;2.00;;;19.30;88.60;;;;;;10371358;28;20038;-64
2023/07/17 21:20:13;;;;;;;3.60;1.55;;;19.30;88.60;;;;;;10362149;28;20644;-66
2023/07/17 21:25:14;;;;;;;3.53;1.48;;;19.40;88.60;;;;;;10372468;28;20029;-66
2023/07/17 21:30:14;;;;;;;5.80;1.70;;;19.40;88.50;;;;;;10364841;28;20444;-65
2023/07/17 21:35:15;;;;;;;4.90;2.03;;;19.40;88.50;;;;;;10367668;28;20707;-66
2023/07/17 21:40:16;;;;;;;3.88;1.80;;;19.40;88.50;;;;;;10372448;28;20029;-66
2023/07/17 21:45:17;;;;;;;2.45;1.75;;;19.40;88.40;;;;;;10355376;28;20108;-66
2023/07/17 21:50:23;;;;;;;6.15;1.60;;;19.40;88.40;;;;;;10367689;28;20032;-66
2023/07/17 21:55:24;;;;;;;4.00;1.75;;;19.40;88.40;;;;;;10367557;28;20283;-66
2023/07/17 22:00:25;;;;;;;3.50;1.55;;;19.30;88.30;;;;;;10367061;28;20017;-66
2023/07/17 22:05:26;;;;;;;2.67;1.20;;;19.40;88.40;;;;;;10370855;28;20182;-66
2023/07/17 22:10:27;;;;;;;2.50;1.30;;;19.40;88.40;;;;;;10366683;28;20025;-66
2023/07/17 22:15:28;;;;;;;4.03;1.60;;;19.30;88.30;;;;;;10367892;28;20239;-66
2023/07/17 22:20:28;;;;;;;5.47;1.88;;;19.30;88.30;;;;;;10362499;28;20109;-66
2023/07/17 22:25:29;;;;;;;2.75;1.20;;;19.30;88.30;;;;;;10372652;28;20032;-65
2023/07/17 22:30:29;;;;;;;2.47;1.25;;;19.30;88.20;;;;;;10365633;28;20038;-66
2023/07/17 22:35:30;;;;;;;7.05;1.42;;;19.30;88.20;;;;;;10374152;28;20033;-66
2023/07/17 22:40:34;;;;;;;3.40;1.52;;;19.30;88.20;;;;;;10362524;28;20032;-66
2023/07/17 22:45:34;;;;;;;3.15;1.00;;;19.30;88.20;;;;;;10372884;28;20052;-66
2023/07/17 22:50:35;;;;;;;3.63;1.40;;;19.30;88.20;;;;;;10379113;28;20374;-66
2023/07/17 22:55:43;;;;;;;3.00;1.25;;;19.30;88.10;;;;;;10378745;28;20033;-66
2023/07/17 23:00:45;;;;;;;4.55;1.20;;;19.30;88.10;;;;;;10376224;28;20449;-66
2023/07/17 23:05:49;;;;;;;2.60;1.15;;;19.30;88.10;;;;;;10379481;28;20037;-65
2023/07/17 23:10:49;;;;;;;3.55;1.40;;;19.30;88.10;;;;;;10384894;28;20099;-65
2023/07/17 23:15:51;;;;;;;2.30;1.30;;;19.20;88.00;;;;;;10383893;28;20091;-66
2023/07/17 23:20:51;;;;;;;4.28;1.40;;;19.20;88.10;;;;;;10379691;28;20025;-66
2023/07/17 23:25:52;;;;;;;2.83;1.38;;;19.20;88.00;;;;;;10381026;28;20029;-66
2023/07/17 23:30:52;;;;;;;2.80;1.20;;;19.20;88.10;;;;;;10382154;28;20036;-66
2023/07/17 23:35:53;;;;;;;2.60;1.20;;;19.20;88.10;;;;;;10381339;28;20022;-66
2023/07/17 23:40:54;;;;;;;2.88;1.35;;;19.10;88.00;;;;;;10378712;28;20037;-66
2023/07/17 23:45:55;;;;;;;1.95;1.27;;;19.10;88.00;;;;;;10380317;28;20025;-66
2023/07/17 23:50:56;;;;;;;2.85;1.35;;;19.10;88.00;;;;;;10384883;28;20025;-66
2023/07/17 23:55:57;;;;;;;3.70;1.67;;;19.10;88.00;;;;;;10377569;28;20023;-66
